Time;durP1;ratioP1;P1;durP2;ratioP2;P2;SDS_P1;SDS_P2;PMS_P1;PMS_P2;Temp;Humidity;BMP_temperature;BMP_pressure;BME280_temperature;BME280_humidity;BME280_pressure;Samples;Min_cycle;Max_cycle;Signal;HPM_P1;HPM_P2
2022/12/08 00:00:35;;;;;;;14.40;9.47;;;;;;;2.87;92.89;101045.75;5027682;28;20477;-77
2022/12/08 00:03:01;;;;;;;14.50;9.63;;;;;;;2.90;92.33;101038.94;5029953;28;20056;-78
2022/12/08 00:10:54;;;;;;;15.77;9.53;;;;;;;2.90;92.63;101033.78;5028260;28;20106;-78
2022/12/08 00:13:19;;;;;;;15.13;9.37;;;;;;;2.89;92.99;101027.78;5027847;28;20029;-78
2022/12/08 00:15:44;;;;;;;17.30;10.33;;;;;;;2.89;92.74;101025.22;5031613;28;20018;-78
2022/12/08 00:18:09;;;;;;;16.10;10.27;;;;;;;2.91;93.01;101025.22;5030628;28;20056;-78
2022/12/08 00:20:35;;;;;;;15.90;9.93;;;;;;;2.91;92.91;101026.09;5030908;28;20197;-77
2022/12/08 00:23:00;;;;;;;14.77;9.63;;;;;;;2.92;92.55;101011.50;5015178;28;20025;-78
2022/12/08 00:25:25;;;;;;;15.73;9.87;;;;;;;2.92;93.07;101011.50;5024552;28;20029;-78
2022/12/08 00:27:51;;;;;;;12.93;9.40;;;;;;;2.92;92.84;101011.50;5026556;28;20034;-78
2022/12/08 00:30:16;;;;;;;14.00;9.27;;;;;;;2.92;92.81;101004.69;5031351;28;20032;-78
2022/12/08 00:32:41;;;;;;;14.93;10.17;;;;;;;2.94;92.79;101009.81;5030391;28;20029;-78
2022/12/08 00:35:07;;;;;;;13.77;8.87;;;;;;;2.93;92.97;101016.69;5029616;28;20014;-78
2022/12/08 00:37:32;;;;;;;14.77;9.27;;;;;;;2.93;92.95;100997.81;5029443;28;20427;-78
2022/12/08 00:39:57;;;;;;;14.50;9.33;;;;;;;2.92;92.83;101001.22;5028626;28;20064;-78
2022/12/08 00:42:22;;;;;;;14.00;9.70;;;;;;;2.93;92.68;101001.28;5030267;28;20108;-78
2022/12/08 00:44:48;;;;;;;14.57;9.30;;;;;;;2.93;92.95;100995.25;5028349;28;20029;-78
2022/12/08 00:47:14;;;;;;;13.37;9.33;;;;;;;2.93;92.94;100997.81;5028344;28;20169;-78
2022/12/08 00:49:39;;;;;;;13.57;9.47;;;;;;;2.92;92.75;100994.41;5028660;28;20423;-78
2022/12/08 00:52:05;;;;;;;13.07;9.13;;;;;;;2.91;92.38;100990.09;5015974;28;20030;-78
2022/12/08 00:54:30;;;;;;;14.13;8.93;;;;;;;2.91;92.76;100989.22;5026359;28;20036;-78
2022/12/08 00:56:55;;;;;;;14.37;9.17;;;;;;;2.90;92.80;100985.81;5019348;28;20026;-78
2022/12/08 00:59:21;;;;;;;12.87;8.87;;;;;;;2.89;92.78;100981.53;5021118;28;20423;-78
2022/12/08 01:01:47;;;;;;;14.63;9.43;;;;;;;2.87;92.87;100978.94;5029535;28;20076;-78
2022/12/08 01:04:15;;;;;;;12.83;8.80;;;;;;;2.89;92.66;100986.66;5025443;28;21696;-78
2022/12/08 01:06:40;;;;;;;14.47;9.63;;;;;;;2.91;92.74;100971.25;5019999;28;20029;-78
2022/12/08 01:09:07;;;;;;;15.10;9.77;;;;;;;2.90;93.10;100974.69;5027410;28;20091;-78
2022/12/08 01:11:33;;;;;;;14.63;9.60;;;;;;;2.90;92.97;100966.97;5028248;28;20473;-77
2022/12/08 01:13:58;;;;;;;16.50;10.33;;;;;;;2.90;92.84;100966.97;5027516;28;20033;-78
2022/12/08 01:16:26;;;;;;;13.97;9.93;;;;;;;2.90;93.14;100966.97;5030396;28;20033;-78
2022/12/08 01:18:51;;;;;;;14.93;9.03;;;;;;;2.92;92.87;100967.81;5030147;28;20034;-78
2022/12/08 01:21:17;;;;;;;14.83;9.17;;;;;;;2.92;93.30;100976.41;5028785;28;20033;-78
2022/12/08 01:23:43;;;;;;;13.13;9.03;;;;;;;2.93;93.44;100961.84;5026662;28;20048;-78
2022/12/08 01:26:10;;;;;;;15.33;9.60;;;;;;;2.95;93.13;100967.84;5022360;28;20026;-78
2022/12/08 01:28:36;;;;;;;15.83;10.03;;;;;;;2.96;93.08;100972.16;5027838;28;20053;-78
2022/12/08 01:31:01;;;;;;;14.60;9.50;;;;;;;2.96;93.27;100969.59;5029726;28;20032;-78
2022/12/08 01:33:28;;;;;;;14.63;9.37;;;;;;;2.97;93.34;100973.88;5029679;28;20036;-78
2022/12/08 01:35:57;;;;;;;14.97;9.80;;;;;;;2.98;93.20;100973.03;5029583;28;20037;-78
2022/12/08 01:38:22;;;;;;;15.97;9.67;;;;;;;2.98;93.47;100970.47;5030733;28;20044;-78
2022/12/08 01:40:48;;;;;;;15.53;9.27;;;;;;;2.99;93.08;100974.75;5034997;28;20017;-78
2022/12/08 01:43:16;;;;;;;14.07;9.37;;;;;;;2.99;93.16;100962.75;5031803;28;20432;-78
2022/12/08 01:45:42;;;;;;;14.10;9.23;;;;;;;3.01;93.41;100973.91;5029463;28;20528;-78
2022/12/08 01:48:12;;;;;;;15.00;9.37;;;;;;;3.02;93.27;100959.34;5033062;28;20113;-78
2022/12/08 01:50:40;;;;;;;14.67;9.27;;;;;;;3.02;93.14;100955.06;5026740;28;20058;-78
2022/12/08 01:53:11;;;;;;;12.97;8.90;;;;;;;3.03;93.54;100955.94;5029772;28;20024;-78
2022/12/08 01:56:02;;;;;;;13.10;8.65;;;;;;;3.04;93.21;100955.94;5026174;28;20435;-78
2022/12/08 01:58:33;;;;;;;11.95;7.97;;;;;;;3.03;93.19;100949.06;5027146;28;20048;-78
2022/12/08 02:00:59;;;;;;;13.50;8.77;;;;;;;3.04;92.88;100955.09;5032668;28;20017;-78
2022/12/08 02:03:33;;;;;;;12.27;8.17;;;;;;;3.04;93.32;100955.09;5031587;28;20029;-78
2022/12/08 02:05:58;;;;;;;12.70;7.80;;;;;;;3.03;93.18;100943.09;5030900;28;20112;-78
2022/12/08 02:08:24;;;;;;;11.43;7.70;;;;;;;3.03;93.33;100945.66;5031123;28;20442;-78
2022/12/08 02:10:51;;;;;;;12.27;7.47;;;;;;;3.02;93.28;100938.78;5014213;28;20440;-78
2022/12/08 02:13:19;;;;;;;11.23;7.60;;;;;;;3.04;93.44;100934.53;5026788;28;20416;-78
2022/12/08 02:15:52;;;;;;;11.73;7.97;;;;;;;3.03;93.37;100928.50;5030315;28;20034;-78
2022/12/08 02:18:45;;;;;;;11.87;7.73;;;;;;;3.04;93.26;100924.25;5023189;28;20469;-78
2022/12/08 02:21:16;;;;;;;11.80;7.40;;;;;;;3.04;93.33;100935.38;5026177;28;20030;-78
2022/12/08 02:24:04;;;;;;;12.20;7.93;;;;;;;3.01;93.41;100925.06;5032033;28;20460;-78
2022/12/08 02:27:09;;;;;;;14.87;8.40;;;;;;;3.02;93.27;100926.78;5032791;28;20022;-78
2022/12/08 02:30:05;;;;;;;12.10;7.93;;;;;;;3.01;93.27;100919.94;5025749;28;20094;-78
2022/12/08 02:32:47;;;;;;;11.73;8.13;;;;;;;2.99;92.92;100911.34;5022785;28;20021;-78
2022/12/08 02:35:36;;;;;;;13.20;8.40;;;;;;;2.98;93.14;100901.06;5031984;28;20591;-78
2022/12/08 02:38:14;;;;;;;12.43;7.93;;;;;;;2.96;93.02;100898.50;5030268;28;20036;-78
2022/12/08 02:41:17;;;;;;;12.87;7.70;;;;;;;2.95;93.18;100896.78;5029063;28;20025;-78
2022/12/08 02:44:05;;;;;;;12.17;7.90;;;;;;;2.95;93.44;100895.91;5030360;28;20036;-78
2022/12/08 02:46:41;;;;;;;11.13;7.30;;;;;;;2.94;92.96;100891.59;5033039;28;20037;-78
2022/12/08 02:49:06;;;;;;;10.87;7.20;;;;;;;2.93;93.35;100887.31;5028850;28;20083;-78
2022/12/08 02:51:31;;;;;;;11.37;6.93;;;;;;;2.93;93.38;100879.59;5031940;28;20112;-78
2022/12/08 02:53:58;;;;;;;10.50;6.77;;;;;;;2.90;93.13;100879.63;5030879;28;20026;-78
2022/12/08 02:56:55;;;;;;;10.80;6.83;;;;;;;2.92;93.27;100875.31;5032417;28;20550;-78
2022/12/08 02:59:34;;;;;;;11.40;6.47;;;;;;;2.93;93.21;100869.31;5021663;28;20029;-78
2022/12/08 03:02:22;;;;;;;10.33;6.33;;;;;;;2.91;93.02;100878.72;5023225;28;20044;-78
2022/12/08 03:05:07;;;;;;;11.00;6.00;;;;;;;2.91;93.02;100868.47;5026925;28;20132;-77
2022/12/08 03:07:43;;;;;;;9.47;6.13;;;;;;;2.90;93.32;100864.19;5030050;28;20095;-78
2022/12/08 03:10:23;;;;;;;9.20;5.83;;;;;;;2.90;93.02;100869.34;5028251;28;20059;-77
2022/12/08 03:12:57;;;;;;;8.77;5.93;;;;;;;2.90;93.12;100859.06;5020900;28;20035;-78
2022/12/08 03:15:23;;;;;;;10.60;5.80;;;;;;;2.89;93.12;100868.47;5028256;28;20034;-78
2022/12/08 03:17:54;;;;;;;7.90;5.00;;;;;;;2.92;93.30;100872.75;5029468;28;20025;-78
2022/12/08 03:20:23;;;;;;;9.57;5.25;;;;;;;2.91;93.10;100882.19;5026905;28;20036;-78
2022/12/08 03:22:54;;;;;;;7.60;4.80;;;;;;;2.92;93.58;100880.47;5021425;28;20509;-78
2022/12/08 03:25:24;;;;;;;7.23;4.60;;;;;;;2.95;93.32;100867.63;5021646;28;20036;-78
2022/12/08 03:27:50;;;;;;;7.73;4.40;;;;;;;2.95;93.55;100871.06;5027398;28;20032;-78
2022/12/08 03:30:16;;;;;;;7.57;4.43;;;;;;;2.96;93.77;100866.78;5033122;28;20446;-78
2022/12/08 03:32:56;;;;;;;6.70;4.30;;;;;;;2.99;93.79;100865.09;5031672;28;20029;-78
2022/12/08 03:35:24;;;;;;;6.53;3.97;;;;;;;3.01;93.57;100862.53;5028460;28;20037;-78
2022/12/08 03:37:50;;;;;;;7.83;3.80;;;;;;;3.00;93.88;100861.66;5027626;28;20032;-78
2022/12/08 03:40:18;;;;;;;6.40;3.63;;;;;;;3.02;93.58;100857.41;5029437;28;20021;-78
2022/12/08 03:42:44;;;;;;;6.63;4.17;;;;;;;3.05;93.77;100846.28;5020527;28;20030;-78
2022/12/08 03:45:09;;;;;;;5.73;4.00;;;;;;;3.05;93.50;100836.00;5029537;28;20507;-78
2022/12/08 03:47:35;;;;;;;14.70;4.13;;;;;;;3.05;93.68;100825.72;5028433;28;20114;-78
2022/12/08 03:50:00;;;;;;;7.00;4.43;;;;;;;3.07;93.70;100823.16;5025563;28;20595;-78
2022/12/08 03:52:26;;;;;;;7.17;4.27;;;;;;;3.06;93.83;100824.88;5028348;28;20116;-78
2022/12/08 03:54:51;;;;;;;6.50;4.17;;;;;;;3.08;93.98;100827.44;5031514;28;20030;-78
2022/12/08 03:57:16;;;;;;;7.13;4.53;;;;;;;3.06;93.46;100830.03;5019992;28;20125;-78
2022/12/08 03:59:41;;;;;;;7.23;4.10;;;;;;;3.06;93.82;100824.00;5027983;28;20029;-78
2022/12/08 04:02:07;;;;;;;6.00;4.00;;;;;;;3.06;93.72;100822.31;5024031;28;20017;-78
2022/12/08 04:04:32;;;;;;;6.70;4.33;;;;;;;3.04;93.79;100818.88;5019974;28;20029;-77
2022/12/08 04:06:57;;;;;;;7.57;4.77;;;;;;;3.06;93.47;100824.88;5030663;28;20040;-78
2022/12/08 04:09:22;;;;;;;7.50;4.60;;;;;;;3.04;93.54;100821.44;5027759;28;20033;-78
2022/12/08 04:11:48;;;;;;;6.97;4.70;;;;;;;3.03;93.86;100818.00;5025967;28;20025;-78
2022/12/08 04:14:13;;;;;;;7.77;4.87;;;;;;;3.02;93.63;100813.72;5030932;28;20099;-78
2022/12/08 04:16:39;;;;;;;7.80;4.87;;;;;;;3.04;93.79;100811.16;5031308;28;20052;-78
2022/12/08 04:19:04;;;;;;;12.00;6.10;;;;;;;3.03;93.84;100809.44;5017206;28;20036;-78
2022/12/08 04:21:29;;;;;;;8.67;5.67;;;;;;;3.05;93.76;100810.31;5024496;28;20025;-78
2022/12/08 04:23:55;;;;;;;9.17;5.47;;;;;;;3.05;93.98;100800.03;5029535;28;20029;-78
2022/12/08 04:26:20;;;;;;;9.43;5.93;;;;;;;3.04;93.81;100793.16;5027461;28;20439;-78
2022/12/08 04:28:45;;;;;;;9.33;6.00;;;;;;;3.04;94.04;100798.31;5027381;28;20060;-77
2022/12/08 04:31:10;;;;;;;13.20;7.23;;;;;;;3.04;94.07;100796.59;5027627;28;20021;-78
2022/12/08 04:33:36;;;;;;;10.93;6.97;;;;;;;3.05;93.85;100794.88;5025751;28;20506;-77
2022/12/08 04:36:03;;;;;;;13.03;7.97;;;;;;;3.05;93.99;100797.47;5024231;28;20036;-78
2022/12/08 04:38:29;;;;;;;15.03;8.80;;;;;;;3.06;94.24;100791.47;5027848;28;20021;-78
2022/12/08 04:40:54;;;;;;;15.23;8.50;;;;;;;3.05;94.29;100792.31;5029774;28;20575;-78
2022/12/08 04:43:19;;;;;;;14.70;8.97;;;;;;;3.06;94.00;100799.19;5024893;28;20476;-78
2022/12/08 04:45:45;;;;;;;15.63;9.30;;;;;;;3.08;94.05;100792.31;5015316;28;20065;-78
2022/12/08 04:48:13;;;;;;;16.53;9.27;;;;;;;3.07;94.46;100798.31;5027197;28;20033;-78
2022/12/08 04:50:40;;;;;;;16.70;9.87;;;;;;;3.08;94.50;100794.88;5026362;28;20033;-78
2022/12/08 04:53:07;;;;;;;16.13;9.43;;;;;;;3.08;94.34;100792.31;5015812;28;20140;-78
2022/12/08 04:55:32;;;;;;;17.13;9.87;;;;;;;3.08;94.37;100792.31;5014901;28;20108;-78
2022/12/08 04:57:57;;;;;;;19.37;10.90;;;;;;;3.09;94.06;100796.59;5028012;28;20104;-78
2022/12/08 05:00:23;;;;;;;18.17;10.13;;;;;;;3.08;94.00;100789.75;5026202;28;20388;-78
2022/12/08 05:02:48;;;;;;;18.83;10.90;;;;;;;3.08;94.44;100792.31;5028513;28;20057;-78
2022/12/08 05:05:13;;;;;;;17.50;9.53;;;;;;;3.08;94.34;100784.59;5029940;28;20496;-78
2022/12/08 05:07:38;;;;;;;16.87;9.47;;;;;;;3.09;94.47;100777.75;5029487;28;20104;-78
2022/12/08 05:10:04;;;;;;;14.57;8.53;;;;;;;3.08;94.41;100784.59;5025181;28;20115;-78
2022/12/08 05:12:30;;;;;;;16.83;9.07;;;;;;;3.04;94.58;100783.72;5033216;28;20033;-77
2022/12/08 05:14:55;;;;;;;13.23;7.93;;;;;;;3.06;94.52;100786.31;5034172;28;20376;-78
2022/12/08 05:17:20;;;;;;;14.20;7.73;;;;;;;3.07;94.83;100785.47;5034255;28;20033;-78
2022/12/08 05:19:46;;;;;;;11.43;6.83;;;;;;;3.08;94.21;100784.59;5021918;28;20029;-78
2022/12/08 05:22:11;;;;;;;9.33;6.10;;;;;;;3.08;94.16;100787.16;5033624;28;20030;-77
2022/12/08 05:24:37;;;;;;;9.67;6.10;;;;;;;3.09;94.13;100788.88;5026244;28;20029;-78
2022/12/08 05:27:02;;;;;;;10.93;6.33;;;;;;;3.10;93.76;100793.19;5024777;28;20137;-78
2022/12/08 05:29:28;;;;;;;11.60;6.80;;;;;;;3.12;93.90;100793.19;5029874;28;20132;-77
2022/12/08 05:31:53;;;;;;;12.37;6.97;;;;;;;3.11;94.26;100792.31;5031471;28;20123;-78
2022/12/08 05:34:18;;;;;;;11.00;6.40;;;;;;;3.07;94.21;100795.75;5024578;28;20044;-78
2022/12/08 05:36:44;;;;;;;10.03;5.97;;;;;;;3.06;93.61;100799.19;5030894;28;20029;-78
2022/12/08 05:39:13;;;;;;;9.50;5.50;;;;;;;2.98;93.50;100800.84;5027146;28;20435;-78
2022/12/08 05:41:39;;;;;;;8.67;5.17;;;;;;;2.96;93.99;100797.41;5028131;28;20373;-78
2022/12/08 05:44:05;;;;;;;9.73;4.80;;;;;;;2.93;93.52;100787.09;5025993;28;20510;-78
2022/12/08 05:46:30;;;;;;;7.30;4.17;;;;;;;2.90;93.92;100781.97;5033889;28;20037;-78
2022/12/08 05:48:58;;;;;;;7.73;4.33;;;;;;;2.92;93.79;100785.38;5031153;28;20037;-78
2022/12/08 05:51:23;;;;;;;6.53;4.03;;;;;;;2.90;93.83;100781.97;5029004;28;20034;-78
2022/12/08 05:53:50;;;;;;;8.77;4.27;;;;;;;2.86;93.76;100781.94;5024936;28;20017;-78
2022/12/08 05:56:16;;;;;;;7.43;3.70;;;;;;;2.85;93.69;100769.06;5025876;28;20026;-78
2022/12/08 05:58:42;;;;;;;5.33;3.47;;;;;;;2.83;93.67;100760.50;5025505;28;20044;-78
2022/12/08 06:01:17;;;;;;;5.63;3.17;;;;;;;2.79;93.79;100769.91;5018212;28;20389;-77
2022/12/08 06:03:43;;;;;;;4.30;2.67;;;;;;;2.79;93.72;100769.06;5029800;28;20021;-78
2022/12/08 06:06:08;;;;;;;4.43;2.57;;;;;;;2.78;93.51;100765.63;5032532;28;20471;-78
2022/12/08 06:08:33;;;;;;;4.03;2.63;;;;;;;2.76;93.80;100763.91;5031547;28;20160;-78
2022/12/08 06:10:58;;;;;;;6.13;2.50;;;;;;;2.77;93.68;100771.59;5030042;28;20041;-77
2022/12/08 06:13:24;;;;;;;3.27;2.10;;;;;;;2.77;94.15;100763.91;5027122;28;20530;-77
2022/12/08 06:15:49;;;;;;;4.07;2.30;;;;;;;2.79;94.09;100769.91;5025829;28;20084;-77
2022/12/08 06:18:14;;;;;;;3.60;2.30;;;;;;;2.80;93.63;100770.78;5024605;28;20492;-77
2022/12/08 06:20:40;;;;;;;4.23;2.50;;;;;;;2.79;93.88;100769.91;5028500;28;20033;-78
2022/12/08 06:23:05;;;;;;;4.10;2.50;;;;;;;2.80;93.96;100769.06;5012060;28;20159;-78
2022/12/08 06:25:30;;;;;;;3.93;2.63;;;;;;;2.79;93.66;100766.50;5024330;28;20029;-78
2022/12/08 06:27:55;;;;;;;5.80;3.10;;;;;;;2.79;94.15;100769.91;5028079;28;20104;-78
2022/12/08 06:30:21;;;;;;;4.47;2.50;;;;;;;2.76;94.21;100764.75;5027136;28;20041;-77
2022/12/08 06:32:46;;;;;;;4.17;2.70;;;;;;;2.76;94.25;100762.19;5027571;28;20025;-78
2022/12/08 06:35:11;;;;;;;4.67;2.80;;;;;;;2.76;94.17;100759.59;5030319;28;20041;-78
2022/12/08 06:37:37;;;;;;;4.03;2.50;;;;;;;2.76;94.01;100754.47;5030807;28;20033;-78
2022/12/08 06:40:02;;;;;;;4.73;2.60;;;;;;;2.75;94.17;100745.03;5034582;28;20029;-78
2022/12/08 06:42:43;;;;;;;3.80;2.73;;;;;;;2.76;93.91;100751.91;5030351;28;20029;-78
2022/12/08 06:45:13;;;;;;;3.97;2.70;;;;;;;2.76;94.59;100753.63;5031475;28;20088;-78
2022/12/08 06:47:38;;;;;;;3.63;2.50;;;;;;;2.77;94.28;100755.34;5031358;28;20026;-78
2022/12/08 06:50:04;;;;;;;4.17;2.40;;;;;;;2.77;94.24;100753.63;5028758;28;20029;-78
2022/12/08 06:52:30;;;;;;;3.77;2.00;;;;;;;2.76;94.34;100751.91;5027614;28;20726;-78
2022/12/08 06:54:55;;;;;;;4.87;2.60;;;;;;;2.75;94.34;100757.03;5025794;28;20120;-78
2022/12/08 06:57:22;;;;;;;3.37;2.17;;;;;;;2.73;94.41;100757.06;5029381;28;20427;-78
2022/12/08 06:59:48;;;;;;;4.07;2.50;;;;;;;2.73;94.19;100759.63;5028472;28;20025;-78
2022/12/08 07:02:13;;;;;;;4.17;2.37;;;;;;;2.73;94.41;100759.63;5030388;28;20059;-78
2022/12/08 07:04:39;;;;;;;4.87;2.40;;;;;;;2.72;94.31;100745.06;5025928;28;20449;-80
2022/12/08 07:07:04;;;;;;;2.77;2.00;;;;;;;2.70;94.45;100754.47;5032746;28;20041;-80
2022/12/08 07:09:29;;;;;;;3.07;1.80;;;;;;;2.70;94.33;100751.91;5032467;28;20033;-80
2022/12/08 07:11:55;;;;;;;3.33;1.80;;;;;;;2.68;94.50;100757.00;5030341;28;20087;-79
2022/12/08 07:14:23;;;;;;;2.40;1.73;;;;;;;2.70;94.71;100757.88;5029139;28;20030;-79
2022/12/08 07:16:49;;;;;;;2.63;1.90;;;;;;;2.70;94.42;100754.47;5034580;28;20036;-79
2022/12/08 07:19:14;;;;;;;2.77;1.93;;;;;;;2.69;94.77;100757.88;5036546;28;20025;-78
2022/12/08 07:21:40;;;;;;;2.53;1.90;;;;;;;2.70;93.98;100759.59;5033488;28;20121;-80
2022/12/08 07:24:05;;;;;;;4.07;2.30;;;;;;;2.68;94.37;100762.13;5036349;28;20109;-79
2022/12/08 07:26:31;;;;;;;2.57;2.10;;;;;;;2.68;94.25;100761.28;5033741;28;20396;-79
2022/12/08 07:28:56;;;;;;;2.80;2.10;;;;;;;2.70;94.28;100754.47;5038310;28;20252;-79
2022/12/08 07:31:23;;;;;;;3.10;2.10;;;;;;;2.68;94.37;100758.72;5033385;28;20025;-79
2022/12/08 07:33:49;;;;;;;3.10;2.23;;;;;;;2.70;94.40;100755.31;5033973;28;20052;-78
2022/12/08 07:36:15;;;;;;;3.30;2.17;;;;;;;2.69;94.33;100755.31;5033136;28;20349;-79
2022/12/08 07:38:41;;;;;;;3.40;2.13;;;;;;;2.71;94.15;100756.19;5033222;28;20021;-79
2022/12/08 07:41:14;;;;;;;5.30;2.87;;;;;;;2.69;93.98;100750.16;5031482;28;20056;-79
2022/12/08 07:43:41;;;;;;;3.53;2.23;;;;;;;2.70;94.18;100755.31;5028031;28;20029;-79
2022/12/08 07:46:06;;;;;;;3.50;1.97;;;;;;;2.72;94.10;100747.63;5031167;28;20475;-79
2022/12/08 07:48:32;;;;;;;2.77;1.87;;;;;;;2.72;93.91;100745.06;5032630;28;20041;-79
2022/12/08 07:51:02;;;;;;;2.90;1.77;;;;;;;2.70;94.27;100741.63;5032777;28;20409;-79
2022/12/08 07:53:28;;;;;;;2.63;1.73;;;;;;;2.73;94.13;100739.06;5031365;28;20117;-78
2022/12/08 07:55:53;;;;;;;3.43;1.80;;;;;;;2.75;94.26;100757.91;5031724;28;20112;-78
2022/12/08 07:58:18;;;;;;;4.10;1.90;;;;;;;2.75;94.15;100754.47;5031279;28;20503;-79
2022/12/08 08:00:44;;;;;;;2.97;1.90;;;;;;;2.77;94.11;100752.78;5029351;28;20033;-78
2022/12/08 08:03:10;;;;;;;3.30;1.90;;;;;;;2.78;93.96;100762.22;5026402;28;20682;-78
2022/12/08 08:05:36;;;;;;;3.40;2.03;;;;;;;2.79;94.05;100756.22;5027730;28;20025;-78
2022/12/08 08:08:01;;;;;;;4.67;2.77;;;;;;;2.77;93.97;100765.63;5026356;28;20421;-78
2022/12/08 08:10:27;;;;;;;3.43;2.60;;;;;;;2.77;94.24;100766.47;5025836;28;20052;-78
2022/12/08 08:12:52;;;;;;;3.90;2.43;;;;;;;2.77;94.13;100770.75;5028796;28;20021;-79
2022/12/08 08:15:19;;;;;;;4.17;2.60;;;;;;;2.77;94.11;100770.75;5028618;28;20072;-78
2022/12/08 08:17:50;;;;;;;3.80;2.60;;;;;;;2.75;93.72;100767.31;5022571;28;20028;-77
2022/12/08 08:20:16;;;;;;;3.40;2.72;;;;;;;2.70;93.59;100777.59;5026392;28;20036;-77
2022/12/08 08:22:43;;;;;;;5.33;2.77;;;;;;;2.66;93.01;100770.69;5023702;28;20017;-78
2022/12/08 08:25:09;;;;;;;5.63;2.90;;;;;;;2.61;93.09;100773.25;5025969;28;20060;-78
2022/12/08 08:27:34;;;;;;;3.73;2.50;;;;;;;2.57;93.43;100769.78;5027605;28;20056;-78
2022/12/08 08:29:59;;;;;;;4.97;2.90;;;;;;;2.58;93.79;100768.94;5026058;28;20042;-78
2022/12/08 08:32:24;;;;;;;8.63;4.73;;;;;;;2.62;94.16;100772.41;5025219;28;20029;-79
2022/12/08 08:34:50;;;;;;;6.80;3.70;;;;;;;2.64;94.09;100768.13;5025404;28;20387;-78
2022/12/08 08:37:16;;;;;;;9.10;5.20;;;;;;;2.67;94.32;100762.16;5023559;28;20376;-77
2022/12/08 08:39:41;;;;;;;9.73;4.80;;;;;;;2.69;94.07;100769.00;5022878;28;20258;-78
2022/12/08 08:42:07;;;;;;;6.63;4.10;;;;;;;2.69;94.15;100766.44;5024091;28;20032;-77
2022/12/08 08:44:32;;;;;;;5.07;3.07;;;;;;;2.71;93.96;100766.47;5021103;28;20037;-79
2022/12/08 08:46:57;;;;;;;5.37;3.10;;;;;;;2.72;93.95;100768.19;5021038;28;20083;-79
2022/12/08 08:49:23;;;;;;;3.10;2.30;;;;;;;2.74;93.91;100763.88;5021087;28;20029;-78
2022/12/08 08:51:48;;;;;;;4.37;2.60;;;;;;;2.73;93.66;100764.75;5021728;28;20033;-79
2022/12/08 08:54:13;;;;;;;6.90;2.40;;;;;;;2.75;93.82;100767.31;5023469;28;20559;-79
2022/12/08 08:56:39;;;;;;;5.43;2.17;;;;;;;2.75;94.04;100768.16;5021090;28;20082;-80
2022/12/08 08:59:04;;;;;;;3.93;2.37;;;;;;;2.78;94.19;100769.91;5005146;28;20052;-80
2022/12/08 09:01:29;;;;;;;6.20;3.57;;;;;;;2.78;93.31;100772.47;5024464;28;20144;-79
2022/12/08 09:03:55;;;;;;;5.87;3.43;;;;;;;2.76;93.66;100764.75;5025106;28;20020;-76
2022/12/08 09:06:21;;;;;;;7.23;3.63;;;;;;;2.78;93.68;100773.31;5020357;28;20025;-79
2022/12/08 09:08:47;;;;;;;5.07;3.00;;;;;;;2.80;93.87;100771.63;5021014;28;20033;-78
2022/12/08 09:11:13;;;;;;;4.93;3.00;;;;;;;2.81;94.11;100773.34;5023227;28;20025;-78
2022/12/08 09:13:39;;;;;;;3.57;2.33;;;;;;;2.84;93.90;100772.50;5021997;28;20056;-79
2022/12/08 09:16:06;;;;;;;4.40;2.67;;;;;;;2.84;93.68;100778.50;5023724;28;20480;-80
2022/12/08 09:18:32;;;;;;;3.20;2.40;;;;;;;2.83;94.04;100776.78;5024555;28;20032;-78
2022/12/08 09:21:04;;;;;;;3.90;2.33;;;;;;;2.85;93.97;100777.66;5023288;28;20025;-78
2022/12/08 09:23:29;;;;;;;3.80;2.47;;;;;;;2.83;93.89;100774.22;5023304;28;20032;-79
2022/12/08 09:25:54;;;;;;;3.13;2.50;;;;;;;2.82;93.50;100769.09;5020237;28;20033;-78
2022/12/08 09:28:20;;;;;;;3.00;2.17;;;;;;;2.80;93.34;100776.78;5021812;28;20046;-79
2022/12/08 09:30:45;;;;;;;3.57;2.30;;;;;;;2.76;93.14;100775.03;5025151;28;20084;-78
2022/12/08 09:33:10;;;;;;;3.30;2.60;;;;;;;2.73;93.43;100772.47;5024458;28;20095;-79
2022/12/08 09:35:35;;;;;;;3.13;2.23;;;;;;;2.73;93.37;100775.03;5006542;28;20495;-79
2022/12/08 09:38:01;;;;;;;5.27;2.40;;;;;;;2.76;93.64;100775.03;5024904;28;20026;-79
2022/12/08 09:40:32;;;;;;;3.10;2.50;;;;;;;2.78;93.58;100769.91;5023446;28;20033;-80
2022/12/08 09:42:57;;;;;;;2.72;2.15;;;;;;;2.80;93.39;100771.63;5022531;28;20422;-79
2022/12/08 09:45:28;;;;;;;3.33;2.60;;;;;;;2.81;93.00;100765.63;5023052;28;20163;-79
2022/12/08 09:48:09;;;;;;;3.90;2.88;;;;;;;2.80;93.30;100751.06;5021649;28;20141;-78
2022/12/08 09:50:54;;;;;;;5.00;3.37;;;;;;;2.87;93.80;100750.25;5019717;28;20037;-79
2022/12/08 09:53:36;;;;;;;4.33;2.40;;;;;;;2.96;93.53;100757.16;5020250;28;20041;-79
2022/12/08 09:56:17;;;;;;;4.03;2.70;;;;;;;3.02;94.06;100761.47;5021138;28;20037;-79
2022/12/08 09:58:57;;;;;;;5.53;3.00;;;;;;;3.07;93.42;100764.91;5020869;28;20079;-79
2022/12/08 10:01:28;;;;;;;4.27;2.30;;;;;;;3.08;93.72;100756.31;5026397;28;20029;-78
2022/12/08 10:03:54;;;;;;;4.03;2.42;;;;;;;3.13;93.30;100753.78;5027032;28;20388;-78
2022/12/08 10:06:40;;;;;;;3.27;2.30;;;;;;;3.16;93.62;100754.66;5029794;28;20029;-78
2022/12/08 10:09:29;;;;;;;3.00;2.30;;;;;;;3.20;93.64;100747.81;5028875;28;20024;-78
2022/12/08 10:12:02;;;;;;;3.83;2.00;;;;;;;3.24;93.28;100751.25;5028875;28;20064;-80
2022/12/08 10:14:41;;;;;;;3.03;2.07;;;;;;;3.27;93.53;100749.56;5027766;28;20079;-79
2022/12/08 10:17:24;;;;;;;3.10;2.17;;;;;;;3.30;93.15;100747.00;5028472;28;20040;-78
2022/12/08 10:20:08;;;;;;;3.00;1.80;;;;;;;3.30;93.16;100740.97;5027148;28;20025;-79
2022/12/08 10:22:34;;;;;;;3.63;2.03;;;;;;;3.30;92.92;100738.41;5028165;28;20109;-78
2022/12/08 10:25:14;;;;;;;2.83;2.00;;;;;;;3.30;92.80;100736.72;5026373;28;20451;-78
2022/12/08 10:27:39;;;;;;;4.90;2.20;;;;;;;3.32;92.90;100734.13;5027504;28;20021;-79
2022/12/08 10:30:16;;;;;;;6.37;2.40;;;;;;;3.36;93.10;100735.84;5007827;28;20453;-79
2022/12/08 10:32:44;;;;;;;5.87;2.30;;;;;;;3.36;92.79;100730.72;5008622;28;20453;-79
2022/12/08 10:35:12;;;;;;;4.40;2.70;;;;;;;3.37;92.57;100732.44;5009169;28;20026;-78
2022/12/08 10:37:38;;;;;;;4.10;2.37;;;;;;;3.38;92.74;100725.56;5008281;28;20036;-78
2022/12/08 10:40:12;;;;;;;4.53;2.67;;;;;;;3.39;92.97;100730.72;5007633;28;20033;-78
2022/12/08 10:42:57;;;;;;;3.60;2.30;;;;;;;3.41;92.74;100731.59;5008960;28;20022;-78
2022/12/08 10:45:37;;;;;;;4.10;2.30;;;;;;;3.43;92.58;100722.13;5007119;28;20554;-78
2022/12/08 10:48:16;;;;;;;6.33;2.33;;;;;;;3.43;92.76;100729.84;5008334;28;20041;-78
2022/12/08 10:50:59;;;;;;;4.20;2.43;;;;;;;3.45;92.38;100728.16;5008547;28;20032;-77
2022/12/08 10:53:26;;;;;;;3.37;2.20;;;;;;;3.45;92.54;100733.28;5007494;28;20362;-78
2022/12/08 10:56:05;;;;;;;3.93;2.57;;;;;;;3.46;92.35;100727.28;5008109;28;20029;-78
2022/12/08 10:58:39;;;;;;;6.47;2.60;;;;;;;3.46;92.18;100727.28;5008604;28;20033;-78
2022/12/08 11:01:40;;;;;;;4.33;2.60;;;;;;;3.48;92.48;100719.59;5007479;28;20109;-78
2022/12/08 11:04:14;;;;;;;4.30;2.80;;;;;;;3.48;92.37;100717.88;4926743;29;20498;-78
2022/12/08 11:06:40;;;;;;;4.30;2.67;;;;;;;3.53;92.64;100720.44;4996172;28;20049;-78
2022/12/08 11:09:22;;;;;;;6.27;2.63;;;;;;;3.59;92.88;100711.88;5007819;28;20030;-78
2022/12/08 11:11:55;;;;;;;4.37;2.83;;;;;;;3.61;92.46;100705.00;5008219;28;20037;-78
2022/12/08 11:14:28;;;;;;;6.97;3.30;;;;;;;3.66;92.68;100711.03;5006948;28;20042;-78
2022/12/08 11:17:15;;;;;;;6.70;4.67;;;;;;;3.68;92.97;100709.31;5007556;28;20033;-79
2022/12/08 11:19:43;;;;;;;9.03;5.20;;;;;;;3.69;92.85;100703.31;5007557;28;20040;-79
2022/12/08 11:22:31;;;;;;;8.97;5.20;;;;;;;3.70;92.33;100710.19;5007886;28;20029;-78
2022/12/08 11:25:00;;;;;;;11.50;6.60;;;;;;;3.68;92.78;100701.59;5006971;28;20045;-78
2022/12/08 11:27:25;;;;;;;10.43;6.23;;;;;;;3.67;92.20;100699.88;5007517;28;20069;-78
2022/12/08 11:29:51;;;;;;;12.60;7.60;;;;;;;3.65;92.12;100688.72;5025811;28;20091;-78
2022/12/08 11:32:16;;;;;;;17.33;9.70;;;;;;;3.64;92.27;100697.31;5027415;28;20033;-78
2022/12/08 11:34:56;;;;;;;18.23;10.23;;;;;;;3.60;92.22;100691.31;5026927;28;20673;-78
2022/12/08 11:37:28;;;;;;;16.53;9.70;;;;;;;3.56;92.07;100684.44;5027707;28;20038;-78
2022/12/08 11:39:57;;;;;;;16.77;9.20;;;;;;;3.54;91.79;100678.44;5027260;28;20480;-78
2022/12/08 11:42:29;;;;;;;17.30;9.43;;;;;;;3.51;91.81;100687.88;5027247;28;20021;-78